Knights Point, Vermont
Current Conditions -  °F | °C
As of 9:35 PM on Wednesday 17 Dec 2014 (Local Time) from KFSO Reporting Station
Haze Haze  
Wind Chill: 33°   Ceiling: 1800
Heat Index: 33°   Visibility: 5mi
Dew Point: 33°   Wind: 0mph
Humidity: 99%   Direction: NA
Pressure: 29.77"   Gusts: NA
Location:  44.841°N, 73.2779°W
Report Text: KFSO 180235Z AUTO 00000KT 5SM BR SCT005 BKN018 OVC027 01/01 A2977 RMK AO2 T00070005
Loading
Personal Weather Stations






























Interactive Weather Map New forecast layout! Learn more

10-Day Weather Forecast

Advertisements
Track Severe Weather on mobile